Terminal Aerodrome Forecast
Issued by NWS Charleston, SC

Home | Current Version | Previous Version | Text Only | Print | Product List | Glossary On
Versions: 1 2 3 4 5 6 7 8 9 10 11 12 13 14 15 16 17 18
000
FTUS42 KCHS 210532
TAFCHS
TAF
KCHS 210532Z 2106/2206 VRB04KT P6SM FEW020
     FM211500 23005KT P6SM SCT035
     FM211800 19009KT P6SM BKN045
     FM220100 21004KT P6SM FEW030=

USA.gov is the U.S. government's official web portal to all federal, state and local government web resources and services.